createdAt,value
2022-09-05T00:02:23.285Z,100806.78
2022-09-05T00:05:25.150Z,100812.81
2022-09-05T00:08:19.698Z,100803.34
2022-09-05T00:11:41.346Z,100800.03
2022-09-05T00:15:17.721Z,100780.56
2022-09-05T00:20:06.406Z,100800.00
2022-09-05T00:24:28.688Z,100805.47
2022-09-05T00:25:00.750Z,100799.81
2022-09-05T00:27:56.742Z,100800.56
2022-09-05T00:31:08.881Z,100799.19
2022-09-05T00:34:00.576Z,100778.78
2022-09-05T00:36:47.654Z,100796.22
2022-09-05T00:39:39.863Z,100786.09
2022-09-05T00:42:24.118Z,100783.44
2022-09-05T00:45:19.420Z,100790.88
2022-09-05T00:48:15.700Z,100790.03
2022-09-05T00:51:06.393Z,100794.81
2022-09-05T00:54:01.893Z,100783.13
2022-09-05T00:57:03.802Z,100788.03
2022-09-05T01:00:17.286Z,100787.22
2022-09-05T01:03:27.402Z,100775.19
2022-09-05T01:06:34.878Z,100772.41
2022-09-05T01:09:35.267Z,100785.97
2022-09-05T01:12:42.110Z,100783.53
2022-09-05T01:15:44.645Z,100793.34
2022-09-05T01:18:42.619Z,100792.44
2022-09-05T01:21:52.000Z,100788.25
2022-09-05T01:25:09.957Z,100786.66
2022-09-05T01:29:17.388Z,100786.25
2022-09-05T01:31:14.177Z,100781.22
2022-09-05T01:34:05.067Z,100751.16
2022-09-05T01:36:59.964Z,100745.75
2022-09-05T01:40:14.866Z,100788.03
2022-09-05T01:43:18.859Z,100753.13
2022-09-05T01:46:20.792Z,100784.84
2022-09-05T01:49:19.290Z,100782.72
2022-09-05T01:52:24.088Z,100776.50
2022-09-05T01:55:21.039Z,100765.94
2022-09-05T01:58:16.987Z,100669.75
2022-09-05T02:01:31.603Z,100773.19
2022-09-05T02:04:36.591Z,100759.13
2022-09-05T02:07:33.304Z,100770.44
2022-09-05T02:10:54.763Z,100778.00
2022-09-05T02:13:53.595Z,100785.38
2022-09-05T02:16:45.197Z,100757.22
2022-09-05T02:19:32.645Z,100767.94
2022-09-05T02:22:23.870Z,100703.22
2022-09-05T02:26:00.670Z,100770.66
2022-09-05T02:28:25.767Z,100768.84
2022-09-05T02:31:19.520Z,100778.19
2022-09-05T02:34:11.633Z,100781.78
2022-09-05T02:37:08.334Z,100761.66
2022-09-05T02:45:02.495Z,100780.44
2022-09-05T02:45:18.589Z,100789.41
2022-09-05T02:46:26.271Z,100779.34
2022-09-05T02:51:01.245Z,100776.09
2022-09-05T02:57:29.067Z,100773.44
2022-09-05T02:57:42.488Z,100771.91
2022-09-05T02:59:16.059Z,100782.00
2022-09-05T03:02:26.187Z,100762.50
2022-09-05T03:05:17.480Z,100748.34
2022-09-05T03:08:22.629Z,100771.72
2022-09-05T03:11:44.388Z,100768.28
2022-09-05T03:15:22.249Z,100770.38
2022-09-05T03:18:48.563Z,100765.50
2022-09-05T03:22:22.607Z,100763.16
2022-09-05T03:25:51.018Z,100766.38
2022-09-05T03:29:16.589Z,100773.84
2022-09-05T03:32:43.096Z,100787.59
2022-09-05T03:36:00.083Z,100792.53
2022-09-05T03:39:32.398Z,100793.19
2022-09-05T03:42:32.496Z,100795.56
2022-09-05T03:45:37.543Z,100787.56
2022-09-05T03:48:51.215Z,100789.34
2022-09-05T03:57:06.747Z,100792.69
2022-09-05T03:57:17.820Z,100795.47
2022-09-05T03:58:57.172Z,100802.03
2022-09-05T04:07:08.727Z,100795.84
2022-09-05T04:08:19.425Z,100810.50
2022-09-05T04:08:32.081Z,100803.25
2022-09-05T04:11:17.964Z,100765.44
2022-09-05T04:14:07.258Z,100808.13
2022-09-05T04:16:54.765Z,100816.94
2022-09-05T04:19:49.952Z,100817.03
2022-09-05T04:23:00.678Z,100816.47
2022-09-05T04:26:01.444Z,100812.44
2022-09-05T04:29:04.533Z,100816.38
2022-09-05T04:32:15.393Z,100815.88
2022-09-05T04:35:16.070Z,100816.94
2022-09-05T04:38:10.008Z,100812.97
2022-09-05T04:41:03.576Z,100806.06
2022-09-05T04:43:50.751Z,100828.34
2022-09-05T04:46:47.877Z,100809.44
2022-09-05T04:49:38.532Z,100816.69
2022-09-05T04:53:01.605Z,100814.19
2022-09-05T04:55:51.008Z,100814.44
2022-09-05T04:59:36.268Z,100826.78
2022-09-05T05:06:02.872Z,100815.50
2022-09-05T05:06:14.487Z,100822.38
2022-09-05T05:08:13.864Z,100838.94
2022-09-05T05:15:29.440Z,100674.41
2022-09-05T05:17:54.427Z,100826.94
2022-09-05T05:18:15.328Z,100842.53
2022-09-05T05:20:42.881Z,100824.56
2022-09-05T05:23:38.391Z,100817.56
2022-09-05T05:26:25.527Z,100804.47
2022-09-05T05:29:19.577Z,100830.31
2022-09-05T05:32:05.960Z,100837.03
2022-09-05T05:34:55.283Z,100820.06
2022-09-05T05:37:44.762Z,100830.72
2022-09-05T05:40:31.752Z,100837.78
2022-09-05T05:43:30.138Z,100828.56
2022-09-05T05:46:29.148Z,100825.38
2022-09-05T05:49:28.982Z,100805.47
2022-09-05T05:52:45.631Z,100833.06
2022-09-05T05:56:01.919Z,100840.31
2022-09-05T05:59:04.413Z,100840.19
2022-09-05T06:02:16.338Z,100844.22
2022-09-05T06:05:21.423Z,100842.38
2022-09-05T06:11:09.473Z,100856.03
2022-09-05T06:15:02.366Z,100856.13
2022-09-05T06:15:42.363Z,100829.47
2022-09-05T06:19:08.316Z,100852.56
2022-09-05T06:22:19.362Z,100835.28
2022-09-05T06:25:50.480Z,100863.81
2022-09-05T06:28:45.881Z,100857.00
2022-09-05T06:31:45.869Z,100860.91
2022-09-05T06:34:59.916Z,100885.75
2022-09-05T06:37:52.616Z,100896.47
2022-09-05T06:40:43.527Z,100916.81
2022-09-05T06:43:56.620Z,100908.38
2022-09-05T06:46:54.936Z,100915.84
2022-09-05T06:50:04.437Z,100921.34
2022-09-05T06:53:35.195Z,100924.00
2022-09-05T06:56:30.832Z,100927.63
2022-09-05T06:59:54.227Z,100932.88
2022-09-05T07:02:58.965Z,100943.06
2022-09-05T07:05:56.592Z,100944.75
2022-09-05T07:08:51.790Z,100948.13
2022-09-05T07:11:46.254Z,100944.47
2022-09-05T07:14:36.139Z,100945.81
2022-09-05T07:17:25.538Z,100926.72
2022-09-05T07:20:22.032Z,100956.94
2022-09-05T07:24:06.859Z,100946.84
2022-09-05T07:26:51.401Z,100951.31
2022-09-05T07:29:32.563Z,100962.69
2022-09-05T07:32:24.244Z,100942.63
2022-09-05T07:35:15.044Z,100954.97
2022-09-05T07:38:13.928Z,100946.50
2022-09-05T07:41:04.538Z,100945.75
2022-09-05T07:43:50.931Z,100920.38
2022-09-05T07:46:38.901Z,100943.56
2022-09-05T07:49:28.342Z,100904.09
2022-09-05T07:56:50.219Z,100917.13
2022-09-05T07:57:16.082Z,100940.06
2022-09-05T07:58:41.553Z,100938.06
2022-09-05T08:01:25.790Z,100902.84
2022-09-05T08:04:11.035Z,100905.13
2022-09-05T08:07:46.878Z,100941.53
2022-09-05T08:10:10.305Z,100917.41
2022-09-05T08:13:23.773Z,100933.66
2022-09-05T08:16:15.239Z,100926.63
2022-09-05T08:19:21.729Z,100921.38
2022-09-05T08:22:07.803Z,100928.06
2022-09-05T08:25:02.374Z,100928.66
2022-09-05T08:28:03.337Z,100919.78
2022-09-05T08:30:54.071Z,100924.75
2022-09-05T08:33:39.501Z,100924.69
2022-09-05T08:36:32.166Z,100920.31
2022-09-05T08:39:21.390Z,100917.31
2022-09-05T08:42:14.600Z,100851.09
2022-09-05T08:46:40.019Z,100915.38
2022-09-05T08:48:31.691Z,100919.72
2022-09-05T08:51:30.997Z,100909.00
2022-09-05T08:54:23.782Z,100913.84
2022-09-05T08:57:19.260Z,100917.63
2022-09-05T09:00:19.179Z,100919.59
2022-09-05T09:03:15.183Z,100914.06
2022-09-05T09:06:30.225Z,100920.47
2022-09-05T09:09:19.603Z,100919.81
2022-09-05T09:12:15.385Z,100918.19
2022-09-05T09:15:02.755Z,100912.94
2022-09-05T09:17:50.737Z,100915.47
2022-09-05T09:20:48.083Z,100885.09
2022-09-05T09:23:48.616Z,100910.38
2022-09-05T09:26:42.062Z,100906.84
2022-09-05T09:29:27.876Z,100904.41
2022-09-05T09:32:19.359Z,100909.47
2022-09-05T09:35:08.563Z,100911.38
2022-09-05T09:38:08.981Z,100907.63
2022-09-05T09:41:32.702Z,100892.06
2022-09-05T09:44:58.127Z,100899.88
2022-09-05T09:48:01.945Z,100881.47
2022-09-05T09:51:04.613Z,100893.31
2022-09-05T09:54:00.715Z,100897.63
2022-09-05T09:57:24.577Z,100902.81
2022-09-05T10:00:12.047Z,100901.41
2022-09-05T10:06:20.099Z,100895.22
2022-09-05T10:10:48.842Z,100895.63
2022-09-05T10:11:00.624Z,100897.16
2022-09-05T10:13:58.378Z,100890.56
2022-09-05T10:17:09.557Z,100895.25
2022-09-05T10:20:20.807Z,100901.81
2022-09-05T10:23:21.589Z,100887.44
2022-09-05T10:26:47.343Z,100895.09
2022-09-05T10:29:56.513Z,100896.09
2022-09-05T10:35:14.792Z,100887.84
2022-09-05T10:36:02.994Z,100879.97
2022-09-05T10:38:54.263Z,100878.47
2022-09-05T10:41:50.033Z,100865.94
2022-09-05T10:44:40.689Z,100849.25
2022-09-05T10:47:40.490Z,100862.81
2022-09-05T10:50:30.418Z,100859.75
2022-09-05T10:53:31.111Z,100802.31
2022-09-05T10:56:28.620Z,100846.13
2022-09-05T11:01:43.189Z,100871.31
2022-09-05T11:02:38.572Z,100833.88
2022-09-05T11:05:28.026Z,100877.78
2022-09-05T11:08:22.838Z,100853.81
2022-09-05T11:10:53.331Z,100849.22
2022-09-05T11:13:36.566Z,100839.53
2022-09-05T11:16:13.647Z,100841.34
2022-09-05T11:18:56.142Z,100868.16
2022-09-05T11:21:27.519Z,100875.34
2022-09-05T11:23:57.429Z,100868.91
2022-09-05T11:26:32.090Z,100859.84
2022-09-05T11:29:05.584Z,100871.09
2022-09-05T11:32:25.381Z,100864.09
2022-09-05T11:39:53.197Z,100870.59
2022-09-05T11:40:04.116Z,100833.63
2022-09-05T11:41:05.324Z,100852.22
2022-09-05T11:44:24.878Z,100870.94
2022-09-05T11:46:55.128Z,100845.91
2022-09-05T11:49:46.022Z,100866.34
2022-09-05T11:52:53.753Z,100856.66
2022-09-05T11:55:47.736Z,100871.31
2022-09-05T11:58:47.195Z,100878.84
2022-09-05T12:01:43.503Z,100866.34
2022-09-05T12:04:19.755Z,100863.22
2022-09-05T12:07:27.015Z,100792.06
2022-09-05T12:10:00.684Z,100810.47
2022-09-05T12:12:41.416Z,100873.94
2022-09-05T12:15:33.945Z,100868.84
2022-09-05T12:18:24.241Z,100873.22
2022-09-05T12:20:57.641Z,100843.53
2022-09-05T12:23:54.049Z,100839.78
2022-09-05T12:27:39.580Z,100872.22
2022-09-05T12:29:33.692Z,100876.69
2022-09-05T12:33:07.528Z,100872.59
2022-09-05T12:36:12.499Z,100880.22
2022-09-05T12:40:25.476Z,100867.44
2022-09-05T12:41:35.078Z,100874.00
2022-09-05T12:44:36.858Z,100869.31
2022-09-05T12:46:13.575Z,100851.88
2022-09-05T12:49:00.351Z,100839.16
2022-09-05T12:51:46.177Z,100860.69
2022-09-05T12:54:32.701Z,100858.69
2022-09-05T13:01:53.151Z,100844.56
2022-09-05T13:03:04.488Z,100859.25
2022-09-05T13:03:05.549Z,100845.31
2022-09-05T13:05:27.934Z,100839.63
2022-09-05T13:07:58.335Z,100853.88
2022-09-05T13:13:03.929Z,100850.50
2022-09-05T13:14:49.526Z,100847.63
2022-09-05T13:16:03.438Z,100850.88
2022-09-05T13:18:37.456Z,100846.03
2022-09-05T13:21:08.494Z,100852.66
2022-09-05T13:23:39.594Z,100843.75
2022-09-05T13:26:11.502Z,100842.41
2022-09-05T13:29:00.174Z,100850.75
2022-09-05T13:37:58.028Z,100838.41
2022-09-05T13:38:02.790Z,100845.16
2022-09-05T13:38:20.680Z,100846.41
2022-09-05T13:40:27.941Z,100821.44
2022-09-05T13:43:05.064Z,100835.41
2022-09-05T13:45:29.667Z,100840.31
2022-09-05T13:48:06.343Z,100847.00
2022-09-05T13:50:35.137Z,100847.97
2022-09-05T13:53:04.967Z,100813.75
2022-09-05T13:55:44.182Z,100851.06
2022-09-05T13:58:15.612Z,100846.47
2022-09-05T14:01:17.629Z,100839.97
2022-09-05T14:05:05.350Z,100837.94
2022-09-05T14:07:46.007Z,100840.25
2022-09-05T14:10:39.340Z,100863.91
2022-09-05T14:13:08.476Z,100861.69
2022-09-05T14:15:42.565Z,100851.41
2022-09-05T14:18:21.341Z,100830.66
2022-09-05T14:21:10.489Z,100863.06
2022-09-05T14:23:45.066Z,100866.25
2022-09-05T14:26:18.485Z,100867.38
2022-09-05T14:28:51.222Z,100868.47
2022-09-05T14:36:11.016Z,100857.09
2022-09-05T14:37:48.385Z,100872.88
2022-09-05T14:37:49.875Z,100872.28
2022-09-05T14:41:15.187Z,100863.78
2022-09-05T14:44:02.143Z,100878.94
2022-09-05T14:46:55.939Z,100874.25
2022-09-05T14:49:40.677Z,100876.44
2022-09-05T14:52:15.724Z,100858.13
2022-09-05T15:02:39.817Z,100877.41
2022-09-05T15:02:45.054Z,100880.41
2022-09-05T15:03:08.824Z,100848.44
2022-09-05T15:05:44.918Z,100865.13
2022-09-05T15:09:27.272Z,100870.28
2022-09-05T15:12:19.782Z,100835.72
2022-09-05T15:13:57.198Z,100881.94
2022-09-05T15:16:25.737Z,100881.41
2022-09-05T15:18:50.897Z,100878.78
2022-09-05T15:21:33.691Z,100882.00
2022-09-05T15:24:01.429Z,100874.22
2022-09-05T15:26:25.811Z,100871.47
2022-09-05T15:28:52.400Z,100826.09
2022-09-05T15:31:38.316Z,100869.47
2022-09-05T15:34:21.947Z,100878.53
2022-09-05T15:36:46.124Z,100872.13
2022-09-05T15:39:22.285Z,100871.69
2022-09-05T15:41:46.544Z,100871.97
2022-09-05T15:44:14.943Z,100886.13
2022-09-05T15:46:49.299Z,100887.78
2022-09-05T15:49:25.700Z,100818.53
2022-09-05T15:51:52.849Z,100880.78
2022-09-05T15:54:37.666Z,100868.75
2022-09-05T15:57:06.740Z,100878.13
2022-09-05T15:59:35.844Z,100879.53
2022-09-05T16:02:08.520Z,100871.31
2022-09-05T16:10:30.912Z,100867.94
2022-09-05T16:10:40.244Z,100875.44
2022-09-05T16:10:57.770Z,100874.13
2022-09-05T16:12:56.060Z,100867.50
2022-09-05T16:17:44.754Z,100875.75
2022-09-05T16:23:18.322Z,100854.72
2022-09-05T16:23:33.822Z,100885.56
2022-09-05T16:23:52.975Z,100897.03
2022-09-05T16:26:42.959Z,100881.25
2022-09-05T16:29:13.699Z,100899.75
2022-09-05T16:31:44.291Z,100891.03
2022-09-05T16:34:28.729Z,100891.25
2022-09-05T16:37:07.783Z,100888.72
2022-09-05T16:39:38.182Z,100894.81
2022-09-05T16:42:05.762Z,100902.84
2022-09-05T16:44:35.767Z,100897.84
2022-09-05T16:47:11.259Z,100901.53
2022-09-05T16:49:43.146Z,100907.09
2022-09-05T16:52:09.360Z,100901.94
2022-09-05T16:54:48.068Z,100904.50
2022-09-05T16:57:18.481Z,100907.97
2022-09-05T16:59:45.512Z,100882.47
2022-09-05T17:02:11.202Z,100907.19
2022-09-05T17:05:04.520Z,100916.44
2022-09-05T17:07:39.914Z,100923.38
2022-09-05T17:10:09.743Z,100923.97
2022-09-05T17:12:38.594Z,100913.94
2022-09-05T17:15:10.227Z,100927.78
2022-09-05T17:18:21.676Z,100915.22
2022-09-05T17:20:37.839Z,100938.53
2022-09-05T17:29:17.526Z,100934.25
2022-09-05T17:29:36.535Z,100945.19
2022-09-05T17:29:36.537Z,100945.69
2022-09-05T17:31:56.180Z,100943.41
2022-09-05T17:34:49.706Z,100951.00
2022-09-05T17:37:33.968Z,100956.09
2022-09-05T17:40:08.754Z,100938.63
2022-09-05T17:42:44.207Z,100955.78
2022-09-05T17:45:16.325Z,100958.84
2022-09-05T17:47:48.392Z,100938.81
2022-09-05T17:50:51.273Z,100867.22
2022-09-05T17:53:25.748Z,100968.28
2022-09-05T17:56:14.400Z,100971.56
2022-09-05T17:58:49.718Z,100965.91
2022-09-05T18:01:26.611Z,100968.72
2022-09-05T18:04:16.085Z,100973.41
2022-09-05T18:06:43.977Z,100949.06
2022-09-05T18:10:12.091Z,100961.47
2022-09-05T18:13:12.723Z,100923.63
2022-09-05T18:16:12.559Z,100963.16
2022-09-05T18:19:32.230Z,100962.44
2022-09-05T18:21:23.023Z,100970.66
2022-09-05T18:23:54.370Z,100979.19
2022-09-05T18:26:24.962Z,100975.03
2022-09-05T18:29:01.685Z,100969.03
2022-09-05T18:32:01.677Z,100971.94
2022-09-05T18:35:09.074Z,100975.88
2022-09-05T18:37:53.710Z,100982.50
2022-09-05T18:40:40.903Z,100973.66
2022-09-05T18:43:14.276Z,100978.47
2022-09-05T18:45:52.523Z,100972.28
2022-09-05T18:48:28.280Z,100976.66
2022-09-05T18:50:56.116Z,100963.31
2022-09-05T18:53:40.152Z,100968.28
2022-09-05T18:56:20.520Z,100976.63
2022-09-05T18:59:09.405Z,100962.31
2022-09-05T19:01:39.301Z,100944.78
2022-09-05T19:04:09.738Z,100972.59
2022-09-05T19:06:55.297Z,100925.03
2022-09-05T19:09:28.750Z,100962.63
2022-09-05T19:12:34.533Z,100944.66
2022-09-05T19:14:53.671Z,100962.97
2022-09-05T19:17:27.383Z,100966.94
2022-09-05T19:20:31.802Z,100968.06
2022-09-05T19:23:11.090Z,100962.53
2022-09-05T19:25:40.379Z,100958.25
2022-09-05T19:34:09.903Z,100946.16
2022-09-05T19:36:46.724Z,100955.91
2022-09-05T19:37:05.137Z,100946.91
2022-09-05T19:37:25.584Z,100930.03
2022-09-05T19:43:48.409Z,100906.94
2022-09-05T19:47:29.719Z,100941.47
2022-09-05T19:47:44.914Z,100929.81
2022-09-05T19:48:07.502Z,100949.47
2022-09-05T19:50:32.695Z,100954.41
2022-09-05T19:53:08.069Z,100954.41
2022-09-05T19:55:36.835Z,100948.41
2022-09-05T19:58:28.089Z,100940.94
2022-09-05T20:01:00.925Z,100937.75
2022-09-05T20:03:27.740Z,100937.19
2022-09-05T20:05:52.310Z,100879.59
2022-09-05T20:08:17.045Z,100888.69
2022-09-05T20:10:42.097Z,100915.31
2022-09-05T20:13:21.439Z,100926.63
2022-09-05T20:15:45.676Z,100916.88
2022-09-05T20:18:20.893Z,100915.72
2022-09-05T20:20:54.357Z,100893.28
2022-09-05T20:23:20.021Z,100862.94
2022-09-05T20:25:47.507Z,100887.41
2022-09-05T20:28:15.810Z,100899.69
2022-09-05T20:30:44.773Z,100912.09
2022-09-05T20:33:23.016Z,100918.06
2022-09-05T20:40:35.805Z,100841.31
2022-09-05T20:43:20.078Z,100908.97
2022-09-05T20:43:21.746Z,100919.66
2022-09-05T20:44:22.949Z,100920.44
2022-09-05T20:51:37.903Z,100923.41
2022-09-05T20:54:22.586Z,100919.56
2022-09-05T20:54:28.650Z,100918.09
2022-09-05T20:55:39.389Z,100920.00
2022-09-05T20:58:10.439Z,100910.59
2022-09-05T21:00:34.470Z,100898.41
2022-09-05T21:03:00.851Z,100901.41
2022-09-05T21:05:28.599Z,100898.41
2022-09-05T21:08:07.437Z,100885.19
2022-09-05T21:10:33.855Z,100905.47
2022-09-05T21:13:23.445Z,100907.16
2022-09-05T21:15:53.262Z,100906.53
2022-09-05T21:18:19.796Z,100897.25
2022-09-05T21:20:53.358Z,100899.56
2022-09-05T21:23:21.987Z,100899.69
2022-09-05T21:25:54.835Z,100901.63
2022-09-05T21:28:32.702Z,100903.53
2022-09-05T21:31:03.940Z,100887.72
2022-09-05T21:33:45.413Z,100904.91
2022-09-05T21:36:12.042Z,100859.72
2022-09-05T21:38:41.298Z,100904.59
2022-09-05T21:41:09.439Z,100877.47
2022-09-05T21:47:39.156Z,100902.34
2022-09-05T21:47:39.906Z,100908.34
2022-09-05T21:49:10.295Z,100908.56
2022-09-05T21:51:34.572Z,100909.50
2022-09-05T21:59:13.295Z,100910.34
2022-09-05T21:59:21.636Z,100894.34
2022-09-05T21:59:47.023Z,100910.97
2022-09-05T22:02:11.686Z,100911.41
2022-09-05T22:04:40.906Z,100898.81
2022-09-05T22:07:06.443Z,100900.84
2022-09-05T22:09:30.946Z,100897.97
2022-09-05T22:11:56.566Z,100904.91
2022-09-05T22:14:22.041Z,100897.97
2022-09-05T22:16:47.536Z,100894.56
2022-09-05T22:19:12.842Z,100897.56
2022-09-05T22:21:38.856Z,100846.53
2022-09-05T22:24:06.295Z,100879.78
2022-09-05T22:26:38.049Z,100888.34
2022-09-05T22:29:09.752Z,100881.31
2022-09-05T22:31:33.894Z,100881.84
2022-09-05T22:33:58.222Z,100886.22
2022-09-05T22:36:22.737Z,100884.63
2022-09-05T22:38:47.748Z,100882.69
2022-09-05T22:41:12.818Z,100879.28
2022-09-05T22:43:37.048Z,100878.03
2022-09-05T22:46:03.673Z,100879.09
2022-09-05T22:48:27.867Z,100869.94
2022-09-05T22:50:52.438Z,100855.59
2022-09-05T22:53:16.541Z,100884.72
2022-09-05T22:55:43.749Z,100858.22
2022-09-05T22:58:09.983Z,100883.34
2022-09-05T23:00:34.720Z,100877.31
2022-09-05T23:03:00.897Z,100868.75
2022-09-05T23:05:25.035Z,100850.03
2022-09-05T23:07:49.069Z,100866.22
2022-09-05T23:10:13.055Z,100859.44
2022-09-05T23:12:37.773Z,100848.31
2022-09-05T23:15:01.813Z,100858.69
2022-09-05T23:17:27.751Z,100846.38
2022-09-05T23:19:53.221Z,100844.38
2022-09-05T23:22:17.248Z,100845.16
2022-09-05T23:24:41.158Z,100831.75
2022-09-05T23:27:05.375Z,100848.09
2022-09-05T23:29:29.328Z,100844.59
2022-09-05T23:31:53.319Z,100841.69
2022-09-05T23:34:17.508Z,100834.81
2022-09-05T23:36:42.893Z,100845.97
2022-09-05T23:39:06.894Z,100844.88
2022-09-05T23:41:32.424Z,100841.03
2022-09-05T23:43:56.657Z,100849.31
2022-09-05T23:46:20.934Z,100824.91
2022-09-05T23:48:45.314Z,100810.25
2022-09-05T23:51:12.014Z,100836.84
2022-09-05T23:53:37.849Z,100851.59
2022-09-05T23:56:02.090Z,100840.44
2022-09-05T23:58:26.347Z,100838.38
